Time;durP1;ratioP1;P1;durP2;ratioP2;P2;SDS_P1;SDS_P2;PMS_P1;PMS_P2;Temp;Humidity;BMP_temperature;BMP_pressure;BME280_temperature;BME280_humidity;BME280_pressure;Samples;Min_cycle;Max_cycle;Signal;HPM_P1;HPM_P2
2021/12/17 00:04:39;;;;;;;32.72;10.15;;;10.30;99.90;;;10.33;99.18;103331.53;5175353;28;20047;-85
2021/12/17 00:07:15;;;;;;;32.55;10.93;;;10.30;99.90;;;10.35;99.11;103334.22;5211256;28;20067;-83
2021/12/17 00:09:48;;;;;;;33.13;10.20;;;10.30;99.90;;;10.35;99.22;103336.84;5209235;28;20057;-84
2021/12/17 00:12:26;;;;;;;29.92;10.82;;;10.30;99.90;;;10.34;99.05;103330.72;5214678;28;20041;-85
2021/12/17 00:14:59;;;;;;;28.80;9.80;;;10.30;99.90;;;10.30;98.90;103333.88;5213646;28;20060;-84
2021/12/17 00:17:36;;;;;;;35.75;10.45;;;10.30;99.90;;;10.25;99.19;103327.44;5214564;28;20044;-83
2021/12/17 00:43:51;;;;;;;35.90;9.57;;;10.20;99.90;;;10.24;98.99;103315.19;5210844;28;20084;-83
2021/12/17 00:49:01;;;;;;;31.33;9.80;;;10.20;99.90;;;10.26;98.92;103308.38;5217616;28;20049;-85
2021/12/17 00:51:56;;;;;;;25.20;8.85;;;10.20;99.90;;;10.27;98.72;103318.00;5217035;28;20049;-84
2021/12/17 00:54:35;;;;;;;27.17;9.00;;;10.20;99.90;;;10.27;98.67;103312.81;5217230;28;20465;-81
2021/12/17 00:57:14;;;;;;;34.03;9.50;;;10.20;99.90;;;10.28;98.76;103302.47;5217730;28;20060;-84
2021/12/17 00:59:49;;;;;;;34.33;10.52;;;10.20;99.90;;;10.28;98.62;103305.09;5217670;28;20140;-84
2021/12/17 01:02:27;;;;;;;30.92;9.95;;;10.20;99.90;;;10.29;98.56;103298.16;5218399;28;20053;-84
2021/12/17 01:05:04;;;;;;;39.08;11.75;;;10.20;99.90;;;10.30;98.70;103294.75;5217523;28;20492;-83
2021/12/17 01:07:39;;;;;;;35.17;10.52;;;10.20;99.90;;;10.31;98.54;103296.59;5218173;28;20060;-83
2021/12/17 01:10:18;;;;;;;32.08;9.80;;;10.20;99.90;;;10.31;98.43;103291.41;5216861;28;20049;-84
2021/12/17 01:12:51;;;;;;;29.58;10.18;;;10.20;99.90;;;10.30;98.47;103286.94;5216002;28;20045;-84
2021/12/17 01:15:24;;;;;;;30.70;9.85;;;10.30;99.90;;;10.30;98.49;103294.75;5216113;28;20079;-84
2021/12/17 01:18:03;;;;;;;38.45;10.70;;;10.20;99.90;;;10.27;98.80;103285.03;5215948;28;20500;-84
2021/12/17 01:21:04;;;;;;;35.97;11.60;;;10.20;99.90;;;10.30;98.69;103294.75;5217547;28;20105;-83
2021/12/17 01:41:13;;;;;;;34.33;10.43;;;10.20;99.90;;;10.27;98.35;103291.94;5214488;28;20046;-84
2021/12/17 01:43:49;;;;;;;28.13;8.95;;;10.20;99.90;;;10.26;98.52;103292.75;5221163;28;20105;-87
2021/12/17 01:46:24;;;;;;;33.47;10.30;;;10.20;99.90;;;10.24;98.38;103290.03;5231355;28;20042;-85
2021/12/17 01:49:07;;;;;;;30.35;9.38;;;10.20;99.90;;;10.23;98.40;103292.50;5225527;28;20045;-84
2021/12/17 02:00:30;;;;;;;29.80;8.82;;;10.20;99.90;;;10.25;97.87;103301.34;5208050;28;20053;-82
2021/12/17 02:03:05;;;;;;;30.33;10.10;;;10.20;99.90;;;10.25;97.81;103307.47;5214936;28;20411;-83
2021/12/17 02:05:38;;;;;;;25.20;8.80;;;10.20;99.90;;;10.22;97.68;103315.00;5216186;28;20224;-84
2021/12/17 02:08:11;;;;;;;25.58;8.30;;;10.20;99.90;;;10.21;97.89;103299.25;5215446;28;20064;-85
2021/12/17 02:19:45;;;;;;;26.90;7.97;;;10.20;99.90;;;10.21;97.25;103307.09;5215261;28;20056;-83
2021/12/17 02:31:03;;;;;;;20.58;6.88;;;10.10;99.90;;;10.21;96.90;103309.69;5214638;28;20083;-83
2021/12/17 02:33:35;;;;;;;23.38;6.90;;;10.10;99.90;;;10.19;96.71;103312.19;5214499;28;20053;-83
2021/12/17 02:36:07;;;;;;;21.38;7.22;;;10.10;99.90;;;10.20;96.89;103310.50;5214743;28;20052;-84
2021/12/17 02:38:40;;;;;;;19.95;6.30;;;10.20;99.90;;;10.18;96.73;103312.06;5214520;28;20080;-84
2021/12/17 02:46:52;;;;;;;22.73;6.70;;;10.10;99.90;;;10.17;96.87;103298.13;5218027;28;20129;-86
2021/12/17 02:49:24;;;;;;;21.50;7.72;;;10.10;99.90;;;10.16;97.02;103301.50;5216916;28;20459;-84
2021/12/17 02:51:57;;;;;;;26.23;7.60;;;10.10;99.90;;;10.11;97.05;103301.97;5213990;28;20049;-84
2021/12/17 02:54:32;;;;;;;23.58;7.32;;;10.10;99.90;;;10.13;97.32;103309.13;5213345;28;20491;-84
2021/12/17 02:57:06;;;;;;;25.63;7.80;;;10.10;99.90;;;10.13;97.37;103305.59;5212124;28;20404;-83
2021/12/17 02:59:39;;;;;;;21.23;6.65;;;10.10;99.90;;;10.13;97.63;103297.78;5211100;28;20064;-84
2021/12/17 03:02:12;;;;;;;21.25;7.20;;;10.00;99.90;;;10.11;97.74;103300.28;5211247;28;20053;-84
2021/12/17 03:04:44;;;;;;;22.45;7.18;;;10.00;99.90;;;10.10;97.81;103301.03;5211594;28;20046;-83
2021/12/17 03:07:17;;;;;;;24.52;6.90;;;10.00;99.90;;;10.10;97.99;103305.34;5210911;28;20072;-82
2021/12/17 03:10:02;;;;;;;19.80;7.25;;;10.00;99.90;;;10.09;98.08;103299.22;5210492;28;20419;-84
2021/12/17 03:12:45;;;;;;;22.48;7.43;;;10.00;99.90;;;10.07;98.26;103296.50;5209679;28;20080;-82
2021/12/17 03:15:25;;;;;;;23.00;7.70;;;10.00;99.90;;;10.05;98.33;103298.09;5209660;28;20052;-84
2021/12/17 03:18:31;;;;;;;22.33;7.13;;;10.00;99.90;;;10.06;98.17;103294.69;5211196;28;20041;-84
2021/12/17 03:23:50;;;;;;;21.70;7.45;;;10.00;99.90;;;10.05;98.60;103279.84;5215672;28;20134;-86
2021/12/17 03:26:26;;;;;;;25.45;7.15;;;10.00;99.90;;;10.04;98.75;103285.88;5215569;28;20053;-85
2021/12/17 03:29:02;;;;;;;19.83;6.78;;;10.00;99.90;;;10.03;98.88;103286.63;5215887;28;20734;-84
2021/12/17 03:31:34;;;;;;;24.65;7.72;;;10.00;99.90;;;10.04;98.77;103284.94;5215032;28;20095;-84
2021/12/17 03:34:17;;;;;;;23.90;7.65;;;10.00;99.90;;;10.02;98.55;103292.63;5215594;28;20045;-87
2021/12/17 03:36:54;;;;;;;21.85;6.78;;;10.00;99.90;;;10.04;98.43;103290.16;5222554;28;20114;-84
2021/12/17 03:39:30;;;;;;;21.23;7.55;;;10.00;99.90;;;10.04;98.33;103278.06;5223621;28;20507;-83
2021/12/17 03:42:06;;;;;;;19.70;6.40;;;10.00;99.90;;;10.07;98.26;103280.88;5196145;28;20064;-84
2021/12/17 03:44:39;;;;;;;21.55;7.30;;;10.00;99.90;;;10.05;98.16;103282.47;5194754;28;20062;-84
2021/12/17 03:47:11;;;;;;;21.38;6.72;;;10.00;99.90;;;10.10;97.94;103284.50;5194700;28;20052;-83
2021/12/17 03:49:43;;;;;;;23.88;7.47;;;10.00;99.90;;;10.07;98.01;103295.59;5196888;28;20060;-83
2021/12/17 03:52:17;;;;;;;22.85;6.50;;;10.00;99.90;;;10.06;97.86;103280.78;5195973;28;20050;-83
2021/12/17 03:54:49;;;;;;;25.92;7.60;;;10.00;99.90;;;10.06;97.93;103278.16;5193412;28;20058;-84
2021/12/17 03:57:22;;;;;;;20.58;6.65;;;10.00;99.90;;;10.04;97.73;103280.66;5193203;28;20476;-83
2021/12/17 03:59:54;;;;;;;22.25;6.32;;;10.00;99.90;;;10.06;97.54;103284.28;5192387;28;20074;-85
2021/12/17 04:02:26;;;;;;;20.80;6.47;;;10.00;99.90;;;10.08;97.47;103284.38;5211982;28;20060;-83
2021/12/17 04:04:58;;;;;;;22.60;6.63;;;10.00;99.90;;;10.07;97.36;103286.09;5210995;28;20048;-83
2021/12/17 04:07:31;;;;;;;19.40;6.32;;;10.00;99.90;;;10.06;97.36;103279.06;5213339;28;20049;-85
2021/12/17 04:10:04;;;;;;;21.00;6.80;;;10.00;99.90;;;10.07;97.41;103275.66;5212305;28;20514;-83
2021/12/17 04:12:47;;;;;;;20.80;7.57;;;10.00;99.90;;;10.03;97.34;103275.31;5212474;28;20584;-83
2021/12/17 04:15:29;;;;;;;20.98;6.90;;;10.00;99.90;;;10.05;97.48;103281.56;5212055;28;20069;-82
2021/12/17 04:18:05;;;;;;;25.10;6.70;;;10.00;99.90;;;10.03;97.31;103283.13;5212524;28;20046;-80
2021/12/17 04:20:37;;;;;;;20.15;6.45;;;10.00;99.90;;;10.03;97.13;103284.03;5212065;28;20503;-83
2021/12/17 04:23:09;;;;;;;18.80;6.55;;;10.00;99.90;;;10.04;97.34;103272.84;5210894;28;20045;-84
2021/12/17 04:25:41;;;;;;;21.88;6.47;;;10.00;99.90;;;10.04;97.35;103282.31;5210917;28;20049;-83
2021/12/17 04:28:15;;;;;;;18.95;5.57;;;10.00;99.90;;;9.99;97.46;103271.56;5212178;28;20056;-83
2021/12/17 04:30:48;;;;;;;22.60;6.90;;;9.90;99.90;;;10.02;97.57;103281.31;5212054;28;20041;-84
2021/12/17 04:33:20;;;;;;;21.38;7.20;;;9.90;99.90;;;10.00;97.54;103278.59;5211303;28;20048;-83
2021/12/17 04:35:52;;;;;;;21.08;7.05;;;9.90;99.90;;;9.98;97.72;103280.19;5210670;28;20049;-83
2021/12/17 04:38:26;;;;;;;20.00;6.65;;;9.90;99.90;;;9.97;97.95;103288.75;5211600;28;20053;-83
2021/12/17 04:41:14;;;;;;;19.00;7.00;;;9.90;99.90;;;9.96;97.90;103292.16;5212185;28;20244;-83
2021/12/17 04:43:58;;;;;;;21.25;7.47;;;9.90;99.90;;;9.94;98.00;103288.53;5211116;28;20415;-83
2021/12/17 04:46:36;;;;;;;20.92;6.97;;;9.90;99.90;;;9.90;98.34;103290.78;5211460;28;20053;-84
2021/12/17 04:57:39;;;;;;;29.08;8.50;;;9.90;99.90;;;9.93;98.10;103289.34;5211689;28;20050;-83
2021/12/17 05:00:20;;;;;;;25.23;8.43;;;9.90;99.90;;;9.95;98.00;103289.44;5334351;22;20390;-74
2021/12/17 05:02:56;;;;;;;24.63;8.82;;;9.90;99.90;;;9.95;98.07;103282.53;5225672;28;20044;-72
2021/12/17 05:05:30;;;;;;;23.48;7.47;;;9.90;99.90;;;9.94;97.91;103280.72;5225890;28;20053;-74
2021/12/17 05:08:07;;;;;;;27.92;7.72;;;9.90;99.90;;;9.97;97.94;103285.25;5225716;28;20045;-74
2021/12/17 05:11:03;;;;;;;23.98;7.82;;;9.90;99.90;;;9.97;97.90;103285.25;5226144;28;20056;-72
2021/12/17 05:19:24;;;;;;;21.88;7.68;;;9.90;99.90;;;9.97;97.65;103282.66;5226891;28;20052;-73
2021/12/17 05:21:58;;;;;;;24.05;7.63;;;9.90;99.90;;;9.95;97.75;103274.72;5230028;28;20416;-72
2021/12/17 05:24:30;;;;;;;23.38;8.02;;;9.90;99.90;;;9.94;97.83;103267.69;5229572;28;20460;-73
2021/12/17 05:27:02;;;;;;;24.33;7.95;;;9.90;99.90;;;9.93;97.81;103268.50;5229428;28;20045;-73
2021/12/17 05:29:34;;;;;;;20.38;6.57;;;9.90;99.90;;;9.94;98.00;103279.81;5229569;28;20048;-73
2021/12/17 05:32:09;;;;;;;24.52;7.90;;;9.90;99.90;;;9.90;98.00;103273.47;5229723;28;20517;-74
2021/12/17 05:34:41;;;;;;;21.33;7.75;;;9.80;99.90;;;9.91;98.05;103270.09;5229802;28;20045;-73
2021/12/17 05:37:13;;;;;;;25.60;8.77;;;9.80;99.90;;;9.90;97.92;103275.16;5229494;28;20049;-71
2021/12/17 05:39:45;;;;;;;23.42;7.07;;;9.80;99.90;;;9.87;98.08;103270.63;5229491;28;20143;-71
2021/12/17 05:42:19;;;;;;;21.98;7.38;;;9.80;99.90;;;9.86;98.29;103274.03;5229363;28;20418;-72
2021/12/17 05:44:56;;;;;;;26.17;7.50;;;9.80;99.90;;;9.85;98.39;103271.31;5229222;28;20056;-74
2021/12/17 05:47:29;;;;;;;25.50;7.03;;;9.80;99.90;;;9.83;98.46;103265.06;5229375;28;20132;-72
2021/12/17 05:50:01;;;;;;;26.35;8.15;;;9.80;99.90;;;9.85;98.74;103266.09;5229196;28;20131;-74
2021/12/17 05:52:33;;;;;;;20.77;7.75;;;9.80;99.90;;;9.86;98.76;103265.31;5229741;28;20168;-74
2021/12/17 05:55:06;;;;;;;28.95;8.02;;;9.80;99.90;;;9.84;98.59;103265.16;5228692;28;20053;-73
2021/12/17 05:57:38;;;;;;;23.55;7.82;;;9.80;99.90;;;9.83;98.77;103263.34;5228616;28;20397;-73
2021/12/17 06:00:12;;;;;;;21.85;7.30;;;9.80;99.90;;;9.82;98.92;103271.97;5228387;28;20049;-72
2021/12/17 06:02:45;;;;;;;18.80;6.63;;;9.70;99.90;;;9.83;99.02;103278.09;5228342;28;20091;-72
2021/12/17 06:05:18;;;;;;;27.38;7.40;;;9.80;99.90;;;9.82;99.29;103282.38;5228934;28;20045;-73
2021/12/17 06:07:50;;;;;;;23.73;7.55;;;9.70;99.90;;;9.82;99.17;103282.38;5228674;28;20047;-72
2021/12/17 06:10:23;;;;;;;23.23;7.18;;;9.70;99.90;;;9.82;99.30;103282.38;5228571;28;20056;-72
2021/12/17 06:12:55;;;;;;;22.00;7.10;;;9.70;99.90;;;9.82;99.21;103298.03;5228892;28;20049;-73
2021/12/17 06:15:27;;;;;;;22.30;6.97;;;9.70;99.90;;;9.84;99.32;103288.63;5228265;28;20053;-72
2021/12/17 06:18:00;;;;;;;26.30;7.60;;;9.80;99.90;;;9.85;99.37;103289.56;5228132;28;20055;-73
2021/12/17 06:20:32;;;;;;;23.52;8.13;;;9.80;99.90;;;9.83;99.16;103284.19;5228264;28;20048;-72
2021/12/17 06:23:04;;;;;;;24.50;7.78;;;9.80;99.90;;;9.82;99.27;103278.88;5228325;28;20536;-73
2021/12/17 06:25:36;;;;;;;18.80;6.63;;;9.80;99.90;;;9.83;99.17;103279.00;5228187;28;20060;-72
2021/12/17 06:28:09;;;;;;;21.02;6.93;;;9.80;99.90;;;9.83;99.13;103283.28;5227484;28;20045;-74
2021/12/17 06:30:42;;;;;;;23.83;8.40;;;9.80;99.90;;;9.82;99.07;103277.19;5228133;28;20405;-74
2021/12/17 06:33:16;;;;;;;21.45;7.28;;;9.80;99.90;;;9.80;99.35;103278.78;5227623;28;20053;-74
2021/12/17 06:35:48;;;;;;;23.60;7.80;;;9.80;99.90;;;9.83;99.08;103288.50;5227751;28;20055;-72
2021/12/17 06:38:20;;;;;;;22.33;7.78;;;9.80;99.90;;;9.82;99.07;103282.38;5227900;28;20131;-74
2021/12/17 06:40:53;;;;;;;22.35;6.72;;;9.80;99.90;;;9.82;98.97;103287.59;5227524;28;20056;-73
2021/12/17 06:43:32;;;;;;;20.52;7.90;;;9.80;99.90;;;9.83;98.97;103293.72;5227646;28;20053;-74
2021/12/17 06:46:17;;;;;;;23.83;7.50;;;9.80;99.90;;;9.84;98.96;103296.44;5227735;28;20060;-74
2021/12/17 06:48:57;;;;;;;21.77;6.88;;;9.80;99.90;;;9.83;98.71;103294.63;5228663;28;20080;-73
2021/12/17 06:54:48;;;;;;;21.42;7.07;;;9.80;99.90;;;9.79;98.62;103293.50;5227353;28;20493;-72
2021/12/17 07:00:18;;;;;;;22.67;7.57;;;9.80;99.90;;;9.78;98.43;103290.78;5204077;28;20076;-72
2021/12/17 07:05:59;;;;;;;19.50;6.53;;;9.80;99.90;;;9.81;98.27;103284.88;5203625;28;20186;-73
2021/12/17 07:11:48;;;;;;;21.33;7.28;;;9.80;99.90;;;9.85;98.08;103282.66;5226870;28;20490;-72
2021/12/17 07:17:15;;;;;;;18.73;6.57;;;9.80;99.90;;;9.85;97.86;103282.66;5226781;28;20052;-73
2021/12/17 07:22:49;;;;;;;18.33;6.80;;;9.80;99.90;;;9.87;97.86;103291.47;5226841;28;20055;-72
2021/12/17 07:28:30;;;;;;;22.52;6.97;;;9.80;99.90;;;9.87;97.90;103295.78;5226779;28;20136;-71
2021/12/17 07:33:58;;;;;;;21.83;7.43;;;9.80;99.90;;;9.86;97.90;103289.66;5225301;28;20064;-72
2021/12/17 07:36:38;;;;;;;22.35;7.60;;;9.80;99.90;;;9.86;97.92;103299.19;5226309;28;20494;-74
2021/12/17 07:39:11;;;;;;;22.10;7.72;;;9.80;99.90;;;9.83;98.03;103292.00;5226631;28;20053;-75
2021/12/17 07:41:44;;;;;;;23.20;7.20;;;9.80;99.90;;;9.85;98.26;103298.28;5226288;28;20053;-71
2021/12/17 07:44:16;;;;;;;20.92;6.25;;;9.80;99.90;;;9.87;98.34;103293.19;5225830;28;20482;-73
2021/12/17 07:46:48;;;;;;;20.73;8.52;;;9.80;99.90;;;9.88;98.22;103293.28;5226228;28;20409;-71
2021/12/17 07:49:20;;;;;;;19.73;6.78;;;9.80;99.90;;;9.90;98.42;103296.00;5226323;28;20044;-72
2021/12/17 07:51:52;;;;;;;23.20;7.80;;;9.80;99.90;;;9.91;98.49;103297.81;5226183;28;20048;-74
2021/12/17 07:54:26;;;;;;;22.65;6.88;;;9.80;99.90;;;9.90;98.36;103302.13;5225460;28;20045;-73
2021/12/17 07:56:58;;;;;;;23.10;7.43;;;9.80;99.90;;;9.93;98.32;103301.47;5225944;28;20048;-73
2021/12/17 07:59:30;;;;;;;21.88;6.95;;;9.80;99.90;;;9.92;98.21;103308.38;5225488;28;20049;-72
2021/12/17 08:02:02;;;;;;;26.73;7.55;;;9.80;99.90;;;9.92;98.31;103316.19;5226107;28;20055;-73
2021/12/17 08:04:34;;;;;;;21.20;7.32;;;9.80;99.90;;;9.90;98.34;103311.63;5225705;28;20506;-73
2021/12/17 08:07:06;;;;;;;21.35;6.65;;;9.80;99.90;;;9.90;98.10;103312.53;5226199;28;20383;-73
2021/12/17 08:09:41;;;;;;;20.95;6.28;;;9.80;99.90;;;9.90;98.35;103320.34;5225963;28;20049;-69
2021/12/17 08:12:13;;;;;;;17.90;6.88;;;9.80;99.90;;;9.89;98.37;103334.19;5225683;28;20049;-70
2021/12/17 08:14:45;;;;;;;22.15;7.32;;;9.80;99.90;;;9.90;98.42;103327.28;5226317;28;20144;-70
2021/12/17 08:17:36;;;;;;;23.85;6.70;;;9.80;99.90;;;9.90;98.53;103338.59;5225691;28;20094;-70
2021/12/17 08:23:44;;;;;;;27.40;6.57;;;9.80;99.90;;;9.91;98.56;103337.84;5225759;28;20078;-70
2021/12/17 08:26:11;;;;;;;22.33;7.43;;;9.80;99.90;;;9.91;98.57;103349.94;5225146;28;20502;-72
2021/12/17 08:28:56;;;;;;;20.88;7.20;;;9.80;99.90;;;9.89;98.50;103352.41;5225868;28;20514;-70
2021/12/17 08:31:29;;;;;;;25.35;7.13;;;9.80;99.90;;;9.90;98.53;103355.94;5225790;28;20511;-70
2021/12/17 08:34:02;;;;;;;20.23;7.63;;;9.80;99.90;;;9.88;98.62;103347.09;5225681;28;20505;-71
2021/12/17 08:36:35;;;;;;;21.90;7.32;;;9.80;99.90;;;9.90;98.42;103355.94;5225486;28;20072;-71
2021/12/17 08:39:07;;;;;;;21.17;7.22;;;9.80;99.90;;;9.92;98.38;103351.78;5225618;28;20049;-71
2021/12/17 08:41:41;;;;;;;22.73;8.32;;;9.80;99.90;;;9.93;98.45;103356.19;5225974;28;20078;-71
2021/12/17 08:44:13;;;;;;;17.90;6.55;;;9.80;99.90;;;9.95;98.54;103352.00;5225673;28;20137;-71
2021/12/17 08:46:45;;;;;;;24.08;8.27;;;9.90;99.90;;;9.96;98.29;103353.81;5225801;28;20048;-70
2021/12/17 08:49:17;;;;;;;19.85;7.07;;;9.80;99.90;;;9.98;98.47;103341.81;5225719;28;20045;-71
2021/12/17 08:51:50;;;;;;;13.32;5.25;;;9.90;99.90;;;10.01;98.33;103342.94;5225340;28;20139;-72
2021/12/17 08:54:22;;;;;;;15.48;5.50;;;9.90;99.90;;;10.00;98.09;103346.34;5226983;28;20525;-70
2021/12/17 08:56:55;;;;;;;14.93;6.47;;;9.90;99.90;;;10.00;97.88;103348.97;5229935;28;20045;-71
2021/12/17 08:59:29;;;;;;;17.00;5.88;;;9.90;99.90;;;10.01;97.55;103347.25;5229252;28;20049;-70
2021/12/17 09:02:01;;;;;;;16.83;6.05;;;9.90;99.90;;;9.99;97.42;103349.75;5229393;28;20135;-72
2021/12/17 09:04:33;;;;;;;16.02;6.32;;;9.90;99.90;;;10.00;97.38;103345.44;5229679;28;20045;-72
2021/12/17 09:07:06;;;;;;;17.60;6.82;;;9.90;99.90;;;9.98;96.99;103350.56;5229648;28;20044;-70
2021/12/17 09:09:39;;;;;;;16.75;6.70;;;9.90;99.90;;;9.97;96.73;103364.34;5229527;28;20512;-72
2021/12/17 09:12:13;;;;;;;16.88;6.55;;;9.90;99.90;;;9.97;96.68;103371.25;5229481;28;20044;-73
2021/12/17 09:14:45;;;;;;;16.52;6.95;;;9.90;99.90;;;9.96;96.60;103372.94;5229304;28;20045;-71
2021/12/17 09:17:19;;;;;;;17.60;6.85;;;9.80;99.90;;;9.99;96.40;103375.81;5229306;28;20056;-72
2021/12/17 09:19:51;;;;;;;17.05;6.70;;;9.90;99.90;;;9.99;96.44;103369.69;5229794;28;20045;-70
2021/12/17 09:22:23;;;;;;;18.42;7.38;;;9.90;99.90;;;9.98;96.12;103376.59;5229781;28;20140;-70
2021/12/17 09:24:55;;;;;;;16.65;6.40;;;9.90;99.90;;;9.99;96.08;103378.41;5229769;28;20474;-70
2021/12/17 09:27:28;;;;;;;16.10;6.28;;;9.90;99.90;;;9.99;95.89;103378.41;5229716;28;20048;-71
2021/12/17 09:30:00;;;;;;;18.23;6.45;;;9.90;99.90;;;10.01;95.80;103378.53;5229525;28;20049;-71
2021/12/17 09:32:32;;;;;;;18.85;6.38;;;9.90;99.90;;;10.02;95.75;103381.25;5229368;28;20053;-71
2021/12/17 09:35:05;;;;;;;19.23;6.88;;;9.90;99.90;;;10.03;95.53;103377.84;5230009;28;20045;-71
2021/12/17 09:37:38;;;;;;;17.63;6.72;;;9.90;99.90;;;10.03;95.43;103375.25;5229518;28;20049;-70
2021/12/17 09:40:13;;;;;;;16.98;6.40;;;10.00;99.90;;;10.07;95.42;103384.22;5229968;28;20170;-72
2021/12/17 09:42:47;;;;;;;;;;;10.00;99.90;;;10.09;95.30;103379.13;5230126;28;20414;-70
2021/12/17 09:45:19;;;;;;;17.15;6.45;;;10.00;99.90;;;10.10;95.11;103380.94;5229372;28;19921;-69
2021/12/17 09:47:51;;;;;;;17.48;7.10;;;10.00;99.90;;;10.11;94.97;103385.38;5229327;28;20489;-70
2021/12/17 09:50:24;;;;;;;15.88;6.97;;;10.00;99.90;;;10.11;94.92;103395.81;5229362;28;20405;-68
2021/12/17 09:52:56;;;;;;;15.82;6.28;;;10.00;99.90;;;10.11;94.94;103390.59;5228991;28;20486;-70
2021/12/17 09:55:28;;;;;;;13.73;5.45;;;10.00;99.90;;;10.11;94.70;103396.72;5229313;28;20549;-69
2021/12/17 09:58:02;;;;;;;13.27;5.97;;;10.00;99.90;;;10.12;94.78;103400.22;5229025;28;20047;-70
2021/12/17 10:00:34;;;;;;;15.32;5.63;;;10.00;99.90;;;10.07;94.60;103395.56;5228783;28;20055;-72
2021/12/17 10:03:08;;;;;;;14.95;5.72;;;10.00;99.90;;;10.06;94.51;103409.38;5229006;28;20047;-71
2021/12/17 10:05:41;;;;;;;19.58;6.78;;;10.00;99.90;;;10.06;94.52;103405.88;5227634;28;20483;-72
2021/12/17 10:08:19;;;;;;;15.25;6.20;;;10.00;99.90;;;10.05;94.62;103397.16;5228895;28;20055;-71
2021/12/17 10:10:57;;;;;;;17.40;6.55;;;10.00;99.90;;;10.05;94.65;103399.75;5228499;28;20048;-72
2021/12/17 10:13:32;;;;;;;16.08;6.97;;;10.00;99.90;;;10.06;94.71;103398.97;5228375;28;20069;-70
2021/12/17 10:16:08;;;;;;;20.63;8.48;;;10.00;99.90;;;10.07;94.73;103390.34;5228924;28;20475;-71
2021/12/17 10:18:41;;;;;;;;;;;10.00;99.90;;;10.12;94.70;103387.19;5228772;28;20067;-70
2021/12/17 10:21:20;;;;;;;19.75;8.23;;;10.00;99.90;;;10.13;94.80;103375.97;5228426;28;20293;-71
2021/12/17 10:23:53;;;;;;;20.95;7.05;;;10.00;99.90;;;10.12;94.73;103390.72;5228576;28;20482;-70
2021/12/17 10:26:27;;;;;;;18.75;6.90;;;10.00;99.90;;;10.17;95.08;103380.63;5228839;28;20049;-69
2021/12/17 10:29:04;;;;;;;18.83;6.43;;;10.00;99.90;;;10.53;100.00;103387.78;5228728;28;20068;-70
2021/12/17 10:31:38;;;;;;;18.58;6.70;;;10.30;99.90;;;10.68;98.93;103388.94;5228588;28;20056;-71
2021/12/17 10:34:18;;;;;;;21.90;7.35;;;10.60;99.90;;;10.68;96.65;103388.03;5227926;28;20048;-72
2021/12/17 10:36:50;;;;;;;19.52;7.85;;;10.60;99.90;;;10.65;95.33;103385.22;5227947;28;20061;-72
2021/12/17 10:39:25;;;;;;;19.30;7.68;;;10.60;99.90;;;10.63;94.77;103384.16;5227694;28;20057;-71
2021/12/17 10:41:58;;;;;;;20.65;8.70;;;10.60;99.90;;;10.61;94.57;103381.44;5227801;28;20436;-72
2021/12/17 10:44:31;;;;;;;19.58;8.20;;;10.60;99.90;;;10.62;94.44;103377.13;5227560;28;20076;-71
2021/12/17 10:47:14;;;;;;;21.88;8.23;;;10.60;99.90;;;10.64;94.16;103375.56;5228127;28;20405;-71
2021/12/17 10:49:53;;;;;;;19.48;7.82;;;10.50;99.90;;;10.64;94.10;103365.16;5227337;28;20510;-69
2021/12/17 10:52:33;;;;;;;23.05;9.15;;;10.50;99.90;;;10.59;94.04;103372.63;5227387;28;20421;-70
2021/12/17 10:55:10;;;;;;;24.33;9.23;;;10.60;99.90;;;10.56;93.96;103368.09;5227055;28;20057;-72
2021/12/17 10:57:43;;;;;;;22.40;9.23;;;10.50;99.90;;;10.51;94.30;103363.31;5227348;28;20489;-72
2021/12/17 11:00:20;;;;;;;25.05;9.30;;;10.50;99.90;;;10.47;94.21;103362.16;5376114;22;20049;-87
2021/12/17 11:02:54;;;;;;;23.83;9.30;;;10.40;99.90;;;10.43;94.52;103370.56;5220749;28;20411;-85
2021/12/17 11:05:26;;;;;;;22.27;8.90;;;10.40;99.90;;;10.33;94.40;103352.38;5214898;28;20049;-84
2021/12/17 11:07:58;;;;;;;23.85;9.13;;;10.30;99.90;;;10.34;94.42;103354.19;5213817;28;20046;-85
2021/12/17 11:10:33;;;;;;;25.30;9.63;;;10.30;99.90;;;10.35;94.41;103363.81;5214226;28;20050;-87
2021/12/17 11:13:18;;;;;;;26.30;9.50;;;10.30;99.90;;;10.31;94.60;103373.13;5214323;28;20049;-85
2021/12/17 11:15:53;;;;;;;25.77;9.50;;;10.30;99.90;;;10.29;94.91;103360.75;5210033;28;20053;-85
2021/12/17 11:18:27;;;;;;;26.40;9.95;;;10.20;99.90;;;10.28;94.92;103358.94;5209772;28;20045;-84
2021/12/17 11:20:59;;;;;;;23.10;9.20;;;10.20;99.90;;;10.28;95.26;103361.53;5208782;28;20060;-84
2021/12/17 11:23:33;;;;;;;27.35;10.13;;;10.20;99.90;;;10.23;95.26;103339.41;5209933;28;20057;-86
2021/12/17 11:26:05;;;;;;;26.77;9.48;;;10.20;99.90;;;10.29;95.41;103351.22;5210423;28;20057;-85
2021/12/17 11:28:38;;;;;;;27.80;9.43;;;10.20;99.90;;;10.28;95.16;103356.31;5209332;28;20057;-87
2021/12/17 11:31:12;;;;;;;25.10;10.90;;;10.20;99.90;;;10.28;95.39;103356.31;5210178;28;20053;-85
2021/12/17 11:33:45;;;;;;;27.17;9.75;;;10.10;99.90;;;10.27;95.47;103351.91;5208845;28;20079;-84
2021/12/17 11:36:18;;;;;;;21.48;8.82;;;10.20;99.90;;;10.29;95.33;103360.75;5213672;28;20174;-86
2021/12/17 11:39:02;;;;;;;23.50;8.93;;;10.20;99.90;;;10.25;95.15;103348.28;5240518;28;20059;-84
2021/12/17 11:41:51;;;;;;;27.08;9.65;;;10.10;99.90;;;10.23;95.37;103353.34;5248956;28;20109;-83
2021/12/17 11:44:28;;;;;;;25.40;8.93;;;10.10;99.90;;;10.24;95.38;103362.13;5229006;28;20171;-88
2021/12/17 11:47:06;;;;;;;24.52;8.95;;;10.10;99.90;;;10.22;95.34;103356.72;5230111;28;20065;-85
2021/12/17 11:49:40;;;;;;;27.70;9.05;;;10.10;99.90;;;10.25;95.47;103362.22;5230086;28;20055;-88
2021/12/17 11:52:12;;;;;;;24.10;9.13;;;10.10;99.90;;;10.26;95.37;103355.31;5233172;28;20053;-86
2021/12/17 11:54:45;;;;;;;25.70;9.95;;;10.10;99.90;;;10.27;95.44;103346.69;5233160;28;20072;-85
2021/12/17 11:57:17;;;;;;;24.63;9.88;;;10.20;99.90;;;10.18;95.44;103340.75;5231932;28;20478;-85
2021/12/17 11:59:49;;;;;;;25.10;9.38;;;10.20;99.90;;;10.28;95.34;103351.09;5232098;28;20057;-84
2021/12/17 12:02:25;;;;;;;27.52;10.13;;;10.20;99.90;;;10.26;95.26;103356.22;5232822;28;20059;-84
2021/12/17 12:04:58;;;;;;;27.67;9.77;;;10.20;99.90;;;10.20;95.67;103349.59;5232704;28;20049;-85
2021/12/17 12:07:38;;;;;;;26.35;10.05;;;10.10;99.90;;;10.23;95.75;103348.16;5232458;28;20060;-84
2021/12/17 12:10:22;;;;;;;26.27;10.30;;;10.20;99.90;;;10.29;95.68;103361.66;5232666;28;20056;-85
2021/12/17 12:13:02;;;;;;;23.63;9.55;;;10.20;99.90;;;10.29;95.73;103361.66;5232124;28;20048;-84
2021/12/17 12:15:41;;;;;;;27.27;10.30;;;10.20;99.90;;;10.28;95.67;103358.94;5231683;28;20052;-84
2021/12/17 12:18:19;;;;;;;25.92;9.55;;;10.20;99.90;;;10.27;95.95;103351.91;5231809;28;20127;-83
2021/12/17 12:21:02;;;;;;;27.27;10.50;;;10.20;99.90;;;10.25;96.04;103343.97;5232165;28;20052;-84
2021/12/17 12:23:45;;;;;;;30.98;10.50;;;10.20;99.90;;;10.26;96.45;103344.88;5232210;28;20128;-84
2021/12/17 12:26:46;;;;;;;30.95;10.98;;;10.20;99.90;;;10.27;96.35;103347.59;5232211;28;20055;-84
2021/12/17 12:29:21;;;;;;;28.23;10.50;;;10.20;99.90;;;10.28;96.25;103343.28;5231545;28;20048;-84
2021/12/17 12:32:03;;;;;;;29.88;10.10;;;10.20;99.90;;;10.31;96.37;103338.31;5232452;28;20119;-83
2021/12/17 12:34:43;;;;;;;23.40;9.25;;;10.20;99.90;;;10.34;96.66;103341.16;5231946;28;20051;-83
2021/12/17 12:37:28;;;;;;;26.95;10.43;;;10.20;99.90;;;10.32;96.72;103334.91;5233205;28;20048;-83
2021/12/17 12:40:23;;;;;;;27.52;9.88;;;10.20;99.90;;;10.32;96.75;103337.53;5232754;28;20068;-84
2021/12/17 12:42:57;;;;;;;25.92;10.15;;;10.20;99.90;;;10.20;96.87;103318.31;5232800;28;20053;-83
2021/12/17 12:45:32;;;;;;;30.35;10.85;;;10.20;99.90;;;10.25;97.07;103337.84;5232381;28;20049;-84
2021/12/17 12:48:05;;;;;;;;;;;10.20;99.90;;;10.24;97.14;103336.03;5234097;28;20124;-85